sensor_id;sensor_type;location;lat;lon;timestamp;temperature;humidity
28548;DHT22;68292;49.600;8.746;2024-01-15T00:00:25;9.00;43.70
28548;DHT22;68292;49.600;8.746;2024-01-15T00:02:54;9.00;43.70
28548;DHT22;68292;49.600;8.746;2024-01-15T00:05:26;9.00;43.60
28548;DHT22;68292;49.600;8.746;2024-01-15T00:07:54;9.00;44.20
28548;DHT22;68292;49.600;8.746;2024-01-15T00:10:23;9.00;43.60
28548;DHT22;68292;49.600;8.746;2024-01-15T00:12:52;9.00;43.70
28548;DHT22;68292;49.600;8.746;2024-01-15T00:15:21;9.00;43.70
28548;DHT22;68292;49.600;8.746;2024-01-15T00:17:51;9.00;43.70
28548;DHT22;68292;49.600;8.746;2024-01-15T00:20:19;9.00;43.80
28548;DHT22;68292;49.600;8.746;2024-01-15T00:22:50;9.00;43.80
28548;DHT22;68292;49.600;8.746;2024-01-15T00:25:18;9.00;43.80
28548;DHT22;68292;49.600;8.746;2024-01-15T00:27:47;9.10;43.90
28548;DHT22;68292;49.600;8.746;2024-01-15T00:30:16;9.10;43.90
28548;DHT22;68292;49.600;8.746;2024-01-15T00:32:45;9.10;44.00
28548;DHT22;68292;49.600;8.746;2024-01-15T00:35:14;9.10;44.00
28548;DHT22;68292;49.600;8.746;2024-01-15T00:37:43;9.10;43.90
28548;DHT22;68292;49.600;8.746;2024-01-15T00:40:13;9.10;44.00
28548;DHT22;68292;49.600;8.746;2024-01-15T00:42:42;9.10;43.90
28548;DHT22;68292;49.600;8.746;2024-01-15T00:45:11;9.10;43.90
28548;DHT22;68292;49.600;8.746;2024-01-15T00:47:40;9.10;43.90
28548;DHT22;68292;49.600;8.746;2024-01-15T00:50:09;9.10;43.90
28548;DHT22;68292;49.600;8.746;2024-01-15T00:52:38;9.10;44.00
28548;DHT22;68292;49.600;8.746;2024-01-15T00:55:07;9.10;44.10
28548;DHT22;68292;49.600;8.746;2024-01-15T00:57:37;9.10;44.20
28548;DHT22;68292;49.600;8.746;2024-01-15T01:00:07;9.10;44.20
28548;DHT22;68292;49.600;8.746;2024-01-15T01:02:37;9.10;44.20
28548;DHT22;68292;49.600;8.746;2024-01-15T01:05:06;9.10;44.20
28548;DHT22;68292;49.600;8.746;2024-01-15T01:07:35;9.10;44.20
28548;DHT22;68292;49.600;8.746;2024-01-15T01:10:05;9.10;44.30
28548;DHT22;68292;49.600;8.746;2024-01-15T01:12:34;9.10;44.30
28548;DHT22;68292;49.600;8.746;2024-01-15T01:15:05;9.10;44.30
28548;DHT22;68292;49.600;8.746;2024-01-15T01:17:34;9.10;44.30
28548;DHT22;68292;49.600;8.746;2024-01-15T01:20:04;9.10;44.30
28548;DHT22;68292;49.600;8.746;2024-01-15T01:22:36;9.10;44.30
28548;DHT22;68292;49.600;8.746;2024-01-15T01:25:06;9.10;44.30
28548;DHT22;68292;49.600;8.746;2024-01-15T01:27:35;9.10;44.30
28548;DHT22;68292;49.600;8.746;2024-01-15T01:30:07;9.10;44.30
28548;DHT22;68292;49.600;8.746;2024-01-15T01:32:37;9.10;44.30
28548;DHT22;68292;49.600;8.746;2024-01-15T01:35:06;9.10;44.20
28548;DHT22;68292;49.600;8.746;2024-01-15T01:37:35;9.10;44.20
28548;DHT22;68292;49.600;8.746;2024-01-15T01:40:04;9.10;44.30
28548;DHT22;68292;49.600;8.746;2024-01-15T01:42:34;9.10;44.30
28548;DHT22;68292;49.600;8.746;2024-01-15T01:45:05;9.10;44.30
28548;DHT22;68292;49.600;8.746;2024-01-15T01:47:35;9.10;44.30
28548;DHT22;68292;49.600;8.746;2024-01-15T01:50:05;9.10;44.30
28548;DHT22;68292;49.600;8.746;2024-01-15T01:52:35;9.10;44.30
28548;DHT22;68292;49.600;8.746;2024-01-15T01:55:06;9.10;44.30
28548;DHT22;68292;49.600;8.746;2024-01-15T01:57:35;9.10;44.30
28548;DHT22;68292;49.600;8.746;2024-01-15T02:00:07;9.00;44.30
28548;DHT22;68292;49.600;8.746;2024-01-15T02:02:40;9.00;44.30
28548;DHT22;68292;49.600;8.746;2024-01-15T02:05:09;9.00;44.30
28548;DHT22;68292;49.600;8.746;2024-01-15T02:07:38;9.10;44.30
28548;DHT22;68292;49.600;8.746;2024-01-15T02:10:07;9.00;44.30
28548;DHT22;68292;49.600;8.746;2024-01-15T02:12:36;9.10;44.40
28548;DHT22;68292;49.600;8.746;2024-01-15T02:15:07;9.10;44.40
28548;DHT22;68292;49.600;8.746;2024-01-15T02:17:56;9.10;44.40
28548;DHT22;68292;49.600;8.746;2024-01-15T02:20:26;9.10;44.50
28548;DHT22;68292;49.600;8.746;2024-01-15T02:23:08;9.10;44.40
28548;DHT22;68292;49.600;8.746;2024-01-15T02:25:40;9.10;44.40
28548;DHT22;68292;49.600;8.746;2024-01-15T02:28:12;9.10;44.40
28548;DHT22;68292;49.600;8.746;2024-01-15T02:30:42;9.10;44.40
28548;DHT22;68292;49.600;8.746;2024-01-15T02:33:12;9.10;44.40
28548;DHT22;68292;49.600;8.746;2024-01-15T02:35:41;9.10;44.40
28548;DHT22;68292;49.600;8.746;2024-01-15T02:38:11;9.10;44.50
28548;DHT22;68292;49.600;8.746;2024-01-15T02:40:40;9.10;44.50
28548;DHT22;68292;49.600;8.746;2024-01-15T02:43:09;9.10;44.50
28548;DHT22;68292;49.600;8.746;2024-01-15T02:45:38;9.10;44.40
28548;DHT22;68292;49.600;8.746;2024-01-15T02:48:07;9.10;44.50
28548;DHT22;68292;49.600;8.746;2024-01-15T02:50:36;9.20;44.50
28548;DHT22;68292;49.600;8.746;2024-01-15T02:53:05;9.20;44.50
28548;DHT22;68292;49.600;8.746;2024-01-15T02:55:35;9.20;44.50
28548;DHT22;68292;49.600;8.746;2024-01-15T02:58:04;9.20;44.60
28548;DHT22;68292;49.600;8.746;2024-01-15T03:00:32;9.20;44.60
28548;DHT22;68292;49.600;8.746;2024-01-15T03:03:01;9.20;44.60
28548;DHT22;68292;49.600;8.746;2024-01-15T03:05:30;9.20;44.60
28548;DHT22;68292;49.600;8.746;2024-01-15T03:07:59;9.20;44.70
28548;DHT22;68292;49.600;8.746;2024-01-15T03:10:28;9.20;44.60
28548;DHT22;68292;49.600;8.746;2024-01-15T03:12:58;9.20;44.60
28548;DHT22;68292;49.600;8.746;2024-01-15T03:15:27;9.20;44.60
28548;DHT22;68292;49.600;8.746;2024-01-15T03:17:56;9.20;44.60
28548;DHT22;68292;49.600;8.746;2024-01-15T03:20:25;9.30;44.60
28548;DHT22;68292;49.600;8.746;2024-01-15T03:22:54;9.30;44.60
28548;DHT22;68292;49.600;8.746;2024-01-15T03:25:22;9.30;44.50
28548;DHT22;68292;49.600;8.746;2024-01-15T03:27:51;9.30;44.50
28548;DHT22;68292;49.600;8.746;2024-01-15T03:30:21;9.30;44.50
28548;DHT22;68292;49.600;8.746;2024-01-15T03:32:50;9.40;44.50
28548;DHT22;68292;49.600;8.746;2024-01-15T03:35:19;9.40;44.50
28548;DHT22;68292;49.600;8.746;2024-01-15T03:37:48;9.40;44.50
28548;DHT22;68292;49.600;8.746;2024-01-15T03:40:17;9.40;44.40
28548;DHT22;68292;49.600;8.746;2024-01-15T03:42:49;9.40;44.50
28548;DHT22;68292;49.600;8.746;2024-01-15T03:45:20;9.40;44.60
28548;DHT22;68292;49.600;8.746;2024-01-15T03:47:49;9.30;44.50
28548;DHT22;68292;49.600;8.746;2024-01-15T03:50:18;9.30;44.60
28548;DHT22;68292;49.600;8.746;2024-01-15T03:52:47;9.30;44.60
28548;DHT22;68292;49.600;8.746;2024-01-15T03:55:16;9.40;44.60
28548;DHT22;68292;49.600;8.746;2024-01-15T03:57:44;9.40;44.50
28548;DHT22;68292;49.600;8.746;2024-01-15T04:00:15;9.40;44.50
28548;DHT22;68292;49.600;8.746;2024-01-15T04:02:46;9.40;44.50
28548;DHT22;68292;49.600;8.746;2024-01-15T04:05:15;9.40;44.50
28548;DHT22;68292;49.600;8.746;2024-01-15T04:07:44;9.40;44.50
28548;DHT22;68292;49.600;8.746;2024-01-15T04:10:13;9.40;44.50
28548;DHT22;68292;49.600;8.746;2024-01-15T04:12:42;9.40;44.50
28548;DHT22;68292;49.600;8.746;2024-01-15T04:15:10;9.40;44.50
28548;DHT22;68292;49.600;8.746;2024-01-15T04:17:39;9.40;44.50
28548;DHT22;68292;49.600;8.746;2024-01-15T04:20:10;9.40;44.70
28548;DHT22;68292;49.600;8.746;2024-01-15T04:22:39;9.40;44.50
28548;DHT22;68292;49.600;8.746;2024-01-15T04:25:08;9.40;44.60
28548;DHT22;68292;49.600;8.746;2024-01-15T04:27:37;9.40;44.60
28548;DHT22;68292;49.600;8.746;2024-01-15T04:30:06;9.40;44.50
28548;DHT22;68292;49.600;8.746;2024-01-15T04:32:36;9.40;44.60
28548;DHT22;68292;49.600;8.746;2024-01-15T04:35:05;9.40;44.50
28548;DHT22;68292;49.600;8.746;2024-01-15T04:37:35;9.40;44.50
28548;DHT22;68292;49.600;8.746;2024-01-15T04:40:06;9.40;44.60
28548;DHT22;68292;49.600;8.746;2024-01-15T04:42:35;9.40;44.60
28548;DHT22;68292;49.600;8.746;2024-01-15T04:45:05;9.40;44.50
28548;DHT22;68292;49.600;8.746;2024-01-15T04:47:34;9.40;44.70
28548;DHT22;68292;49.600;8.746;2024-01-15T04:50:04;9.40;44.70
28548;DHT22;68292;49.600;8.746;2024-01-15T04:52:33;9.40;44.70
28548;DHT22;68292;49.600;8.746;2024-01-15T04:55:04;9.40;44.70
28548;DHT22;68292;49.600;8.746;2024-01-15T04:57:33;9.40;44.60
28548;DHT22;68292;49.600;8.746;2024-01-15T05:00:02;9.40;44.60
28548;DHT22;68292;49.600;8.746;2024-01-15T05:02:30;9.40;44.60
28548;DHT22;68292;49.600;8.746;2024-01-15T05:04:59;9.40;44.60
28548;DHT22;68292;49.600;8.746;2024-01-15T05:07:28;9.40;44.70
28548;DHT22;68292;49.600;8.746;2024-01-15T05:09:57;9.40;44.70
28548;DHT22;68292;49.600;8.746;2024-01-15T05:12:27;9.40;44.70
28548;DHT22;68292;49.600;8.746;2024-01-15T05:14:55;9.40;44.70
28548;DHT22;68292;49.600;8.746;2024-01-15T05:17:24;9.40;44.70
28548;DHT22;68292;49.600;8.746;2024-01-15T05:19:53;9.40;44.70
28548;DHT22;68292;49.600;8.746;2024-01-15T05:22:22;9.50;44.70
28548;DHT22;68292;49.600;8.746;2024-01-15T05:24:52;9.40;44.70
28548;DHT22;68292;49.600;8.746;2024-01-15T05:27:21;9.40;44.70
28548;DHT22;68292;49.600;8.746;2024-01-15T05:29:51;9.50;44.70
28548;DHT22;68292;49.600;8.746;2024-01-15T05:32:20;9.40;44.70
28548;DHT22;68292;49.600;8.746;2024-01-15T05:34:48;9.40;44.70
28548;DHT22;68292;49.600;8.746;2024-01-15T05:37:18;9.40;44.70
28548;DHT22;68292;49.600;8.746;2024-01-15T05:39:46;9.40;44.70
28548;DHT22;68292;49.600;8.746;2024-01-15T05:42:15;9.40;44.80
28548;DHT22;68292;49.600;8.746;2024-01-15T05:44:44;9.50;44.90
28548;DHT22;68292;49.600;8.746;2024-01-15T05:47:14;9.50;44.90
28548;DHT22;68292;49.600;8.746;2024-01-15T05:49:43;9.50;44.90
28548;DHT22;68292;49.600;8.746;2024-01-15T05:52:12;9.50;44.90
28548;DHT22;68292;49.600;8.746;2024-01-15T05:54:41;9.50;44.90
28548;DHT22;68292;49.600;8.746;2024-01-15T05:57:11;9.50;44.80
28548;DHT22;68292;49.600;8.746;2024-01-15T05:59:40;9.50;44.80
28548;DHT22;68292;49.600;8.746;2024-01-15T06:02:08;9.50;44.70
28548;DHT22;68292;49.600;8.746;2024-01-15T06:04:39;9.50;45.00
28548;DHT22;68292;49.600;8.746;2024-01-15T06:07:08;9.50;44.70
28548;DHT22;68292;49.600;8.746;2024-01-15T06:09:36;9.50;44.70
28548;DHT22;68292;49.600;8.746;2024-01-15T06:12:07;9.50;44.80
28548;DHT22;68292;49.600;8.746;2024-01-15T06:14:36;9.50;44.70
28548;DHT22;68292;49.600;8.746;2024-01-15T06:17:05;9.50;44.70
28548;DHT22;68292;49.600;8.746;2024-01-15T06:19:34;9.50;45.40
28548;DHT22;68292;49.600;8.746;2024-01-15T06:22:04;9.50;44.80
28548;DHT22;68292;49.600;8.746;2024-01-15T06:24:33;9.50;44.80
28548;DHT22;68292;49.600;8.746;2024-01-15T06:27:02;9.50;44.80
28548;DHT22;68292;49.600;8.746;2024-01-15T06:29:31;9.50;44.80
28548;DHT22;68292;49.600;8.746;2024-01-15T06:32:00;9.50;44.90
28548;DHT22;68292;49.600;8.746;2024-01-15T06:34:29;9.50;44.80
28548;DHT22;68292;49.600;8.746;2024-01-15T06:36:57;9.50;44.80
28548;DHT22;68292;49.600;8.746;2024-01-15T06:39:28;9.50;44.90
28548;DHT22;68292;49.600;8.746;2024-01-15T06:41:57;9.50;44.90
28548;DHT22;68292;49.600;8.746;2024-01-15T06:44:26;9.50;44.90
28548;DHT22;68292;49.600;8.746;2024-01-15T06:46:55;9.50;44.90
28548;DHT22;68292;49.600;8.746;2024-01-15T06:49:29;9.50;45.00
28548;DHT22;68292;49.600;8.746;2024-01-15T06:51:58;9.50;45.00
28548;DHT22;68292;49.600;8.746;2024-01-15T06:54:28;9.50;45.00
28548;DHT22;68292;49.600;8.746;2024-01-15T06:56:57;9.50;45.00
28548;DHT22;68292;49.600;8.746;2024-01-15T06:59:26;9.50;45.00
28548;DHT22;68292;49.600;8.746;2024-01-15T07:01:54;9.50;45.10
28548;DHT22;68292;49.600;8.746;2024-01-15T07:04:23;9.50;45.00
28548;DHT22;68292;49.600;8.746;2024-01-15T07:06:52;9.50;45.00
28548;DHT22;68292;49.600;8.746;2024-01-15T07:09:21;9.50;45.10
28548;DHT22;68292;49.600;8.746;2024-01-15T07:11:51;9.60;45.20
28548;DHT22;68292;49.600;8.746;2024-01-15T07:14:20;9.60;45.20
28548;DHT22;68292;49.600;8.746;2024-01-15T07:16:49;9.60;45.10
28548;DHT22;68292;49.600;8.746;2024-01-15T07:19:18;9.60;45.10
28548;DHT22;68292;49.600;8.746;2024-01-15T07:21:47;9.60;45.10
28548;DHT22;68292;49.600;8.746;2024-01-15T07:24:17;9.60;45.20
28548;DHT22;68292;49.600;8.746;2024-01-15T07:26:45;9.60;45.20
28548;DHT22;68292;49.600;8.746;2024-01-15T07:29:16;9.60;45.20
28548;DHT22;68292;49.600;8.746;2024-01-15T07:31:48;9.60;45.20
28548;DHT22;68292;49.600;8.746;2024-01-15T07:34:18;9.60;45.20
28548;DHT22;68292;49.600;8.746;2024-01-15T07:36:47;9.60;45.20
28548;DHT22;68292;49.600;8.746;2024-01-15T07:39:16;9.70;45.20
28548;DHT22;68292;49.600;8.746;2024-01-15T07:41:45;9.60;45.20
28548;DHT22;68292;49.600;8.746;2024-01-15T07:44:16;9.60;45.20
28548;DHT22;68292;49.600;8.746;2024-01-15T07:46:45;9.70;45.20
28548;DHT22;68292;49.600;8.746;2024-01-15T07:49:14;9.70;45.20
28548;DHT22;68292;49.600;8.746;2024-01-15T07:51:44;9.60;45.20
28548;DHT22;68292;49.600;8.746;2024-01-15T07:54:13;9.70;45.30
28548;DHT22;68292;49.600;8.746;2024-01-15T07:56:54;9.70;45.20
28548;DHT22;68292;49.600;8.746;2024-01-15T07:59:26;9.70;45.50
28548;DHT22;68292;49.600;8.746;2024-01-15T08:01:55;9.70;45.40
28548;DHT22;68292;49.600;8.746;2024-01-15T08:04:24;9.70;45.30
28548;DHT22;68292;49.600;8.746;2024-01-15T08:06:53;9.70;45.30
28548;DHT22;68292;49.600;8.746;2024-01-15T08:09:22;9.70;45.30
28548;DHT22;68292;49.600;8.746;2024-01-15T08:11:50;9.70;45.30
28548;DHT22;68292;49.600;8.746;2024-01-15T08:14:19;9.70;45.30
28548;DHT22;68292;49.600;8.746;2024-01-15T08:16:49;9.70;45.60
28548;DHT22;68292;49.600;8.746;2024-01-15T08:19:18;9.70;45.40
28548;DHT22;68292;49.600;8.746;2024-01-15T08:21:48;9.70;45.40
28548;DHT22;68292;49.600;8.746;2024-01-15T08:24:17;9.70;45.40
28548;DHT22;68292;49.600;8.746;2024-01-15T08:26:46;9.70;45.40
28548;DHT22;68292;49.600;8.746;2024-01-15T08:29:14;9.70;45.50
28548;DHT22;68292;49.600;8.746;2024-01-15T08:31:43;9.70;45.40
28548;DHT22;68292;49.600;8.746;2024-01-15T08:34:13;9.70;45.40
28548;DHT22;68292;49.600;8.746;2024-01-15T08:36:43;9.80;45.50
28548;DHT22;68292;49.600;8.746;2024-01-15T08:39:11;9.80;45.50
28548;DHT22;68292;49.600;8.746;2024-01-15T08:41:43;9.80;45.50
28548;DHT22;68292;49.600;8.746;2024-01-15T08:44:14;9.70;45.50
28548;DHT22;68292;49.600;8.746;2024-01-15T08:46:42;9.80;45.60
28548;DHT22;68292;49.600;8.746;2024-01-15T08:49:12;9.80;45.60
28548;DHT22;68292;49.600;8.746;2024-01-15T08:51:41;9.80;45.70
28548;DHT22;68292;49.600;8.746;2024-01-15T08:54:10;9.80;45.70
28548;DHT22;68292;49.600;8.746;2024-01-15T08:56:39;9.80;45.70
28548;DHT22;68292;49.600;8.746;2024-01-15T08:59:08;9.80;45.80
28548;DHT22;68292;49.600;8.746;2024-01-15T09:01:38;9.80;45.80
28548;DHT22;68292;49.600;8.746;2024-01-15T09:04:07;9.80;45.80
28548;DHT22;68292;49.600;8.746;2024-01-15T09:06:44;9.90;45.90
28548;DHT22;68292;49.600;8.746;2024-01-15T09:09:14;9.90;46.00
28548;DHT22;68292;49.600;8.746;2024-01-15T09:11:42;9.90;46.00
28548;DHT22;68292;49.600;8.746;2024-01-15T09:14:11;9.90;46.10
28548;DHT22;68292;49.600;8.746;2024-01-15T09:16:42;9.90;46.10
28548;DHT22;68292;49.600;8.746;2024-01-15T09:19:11;9.90;46.20
28548;DHT22;68292;49.600;8.746;2024-01-15T09:21:42;9.90;46.20
28548;DHT22;68292;49.600;8.746;2024-01-15T09:24:11;9.90;46.20
28548;DHT22;68292;49.600;8.746;2024-01-15T09:26:40;9.90;46.20
28548;DHT22;68292;49.600;8.746;2024-01-15T09:29:08;9.90;46.20
28548;DHT22;68292;49.600;8.746;2024-01-15T09:31:37;9.90;46.40
28548;DHT22;68292;49.600;8.746;2024-01-15T09:34:06;10.00;46.40
28548;DHT22;68292;49.600;8.746;2024-01-15T09:36:39;9.90;46.50
28548;DHT22;68292;49.600;8.746;2024-01-15T09:39:11;10.00;46.60
28548;DHT22;68292;49.600;8.746;2024-01-15T09:41:40;10.00;46.60
28548;DHT22;68292;49.600;8.746;2024-01-15T09:44:10;10.00;46.50
28548;DHT22;68292;49.600;8.746;2024-01-15T09:46:40;10.00;46.60
28548;DHT22;68292;49.600;8.746;2024-01-15T09:49:12;10.00;46.50
28548;DHT22;68292;49.600;8.746;2024-01-15T09:51:41;10.00;46.50
28548;DHT22;68292;49.600;8.746;2024-01-15T09:54:14;10.00;46.60
28548;DHT22;68292;49.600;8.746;2024-01-15T09:56:45;10.00;46.60
28548;DHT22;68292;49.600;8.746;2024-01-15T09:59:15;10.00;46.50
28548;DHT22;68292;49.600;8.746;2024-01-15T10:01:45;10.10;46.60
28548;DHT22;68292;49.600;8.746;2024-01-15T10:04:15;10.10;46.50
28548;DHT22;68292;49.600;8.746;2024-01-15T10:06:45;10.10;46.50
28548;DHT22;68292;49.600;8.746;2024-01-15T10:09:17;10.10;46.60
28548;DHT22;68292;49.600;8.746;2024-01-15T10:11:46;10.00;46.60
28548;DHT22;68292;49.600;8.746;2024-01-15T10:14:15;10.00;46.60
28548;DHT22;68292;49.600;8.746;2024-01-15T10:16:43;10.10;46.60
28548;DHT22;68292;49.600;8.746;2024-01-15T10:19:12;10.10;46.70
28548;DHT22;68292;49.600;8.746;2024-01-15T10:21:41;10.10;46.70
28548;DHT22;68292;49.600;8.746;2024-01-15T10:24:10;10.10;46.70
28548;DHT22;68292;49.600;8.746;2024-01-15T10:26:41;10.10;46.70
28548;DHT22;68292;49.600;8.746;2024-01-15T10:29:11;10.10;46.80
28548;DHT22;68292;49.600;8.746;2024-01-15T10:31:40;10.10;46.70
28548;DHT22;68292;49.600;8.746;2024-01-15T10:34:13;10.10;46.80
28548;DHT22;68292;49.600;8.746;2024-01-15T10:36:45;10.10;47.10
28548;DHT22;68292;49.600;8.746;2024-01-15T10:39:20;10.10;47.00
28548;DHT22;68292;49.600;8.746;2024-01-15T10:41:50;10.10;46.90
28548;DHT22;68292;49.600;8.746;2024-01-15T10:44:19;10.10;47.00
28548;DHT22;68292;49.600;8.746;2024-01-15T10:46:48;10.20;46.90
28548;DHT22;68292;49.600;8.746;2024-01-15T10:49:17;10.20;47.00
28548;DHT22;68292;49.600;8.746;2024-01-15T10:51:47;10.10;47.10
28548;DHT22;68292;49.600;8.746;2024-01-15T10:54:17;10.20;47.20
28548;DHT22;68292;49.600;8.746;2024-01-15T10:56:47;10.10;47.20
28548;DHT22;68292;49.600;8.746;2024-01-15T10:59:19;10.10;47.30
28548;DHT22;68292;49.600;8.746;2024-01-15T11:01:49;10.10;47.60
28548;DHT22;68292;49.600;8.746;2024-01-15T11:04:22;10.10;47.30
28548;DHT22;68292;49.600;8.746;2024-01-15T11:06:55;10.20;47.40
28548;DHT22;68292;49.600;8.746;2024-01-15T11:09:24;10.10;47.60
28548;DHT22;68292;49.600;8.746;2024-01-15T11:12:07;10.10;47.50
28548;DHT22;68292;49.600;8.746;2024-01-15T11:14:41;10.10;48.00
28548;DHT22;68292;49.600;8.746;2024-01-15T11:17:11;10.10;47.70
28548;DHT22;68292;49.600;8.746;2024-01-15T11:19:45;10.10;47.60
28548;DHT22;68292;49.600;8.746;2024-01-15T11:22:49;10.20;47.80
28548;DHT22;68292;49.600;8.746;2024-01-15T11:25:19;10.20;48.10
28548;DHT22;68292;49.600;8.746;2024-01-15T11:27:50;10.20;47.60
28548;DHT22;68292;49.600;8.746;2024-01-15T11:30:25;10.20;47.80
28548;DHT22;68292;49.600;8.746;2024-01-15T11:32:54;10.20;48.00
28548;DHT22;68292;49.600;8.746;2024-01-15T11:35:49;10.20;47.80
28548;DHT22;68292;49.600;8.746;2024-01-15T11:38:28;10.10;48.30
28548;DHT22;68292;49.600;8.746;2024-01-15T11:40:58;10.20;48.20
28548;DHT22;68292;49.600;8.746;2024-01-15T11:43:29;10.20;47.90
28548;DHT22;68292;49.600;8.746;2024-01-15T11:46:02;10.20;47.80
28548;DHT22;68292;49.600;8.746;2024-01-15T11:48:42;10.20;48.10
28548;DHT22;68292;49.600;8.746;2024-01-15T11:51:12;10.20;48.40
28548;DHT22;68292;49.600;8.746;2024-01-15T11:53:45;10.20;47.90
28548;DHT22;68292;49.600;8.746;2024-01-15T11:56:17;10.20;48.10
28548;DHT22;68292;49.600;8.746;2024-01-15T11:58:46;10.30;48.00
28548;DHT22;68292;49.600;8.746;2024-01-15T12:01:18;10.30;48.10
28548;DHT22;68292;49.600;8.746;2024-01-15T12:03:48;10.30;48.10
28548;DHT22;68292;49.600;8.746;2024-01-15T12:06:17;10.30;48.00
28548;DHT22;68292;49.600;8.746;2024-01-15T12:08:45;10.30;47.90
28548;DHT22;68292;49.600;8.746;2024-01-15T12:11:16;10.30;47.90
28548;DHT22;68292;49.600;8.746;2024-01-15T12:13:47;10.30;48.00
28548;DHT22;68292;49.600;8.746;2024-01-15T12:16:17;10.30;47.80
28548;DHT22;68292;49.600;8.746;2024-01-15T12:18:47;10.30;47.90
28548;DHT22;68292;49.600;8.746;2024-01-15T12:21:15;10.30;47.90
28548;DHT22;68292;49.600;8.746;2024-01-15T12:23:46;10.30;47.90
28548;DHT22;68292;49.600;8.746;2024-01-15T12:26:16;10.30;48.00
28548;DHT22;68292;49.600;8.746;2024-01-15T12:28:44;10.30;48.00
28548;DHT22;68292;49.600;8.746;2024-01-15T12:31:13;10.30;48.00
28548;DHT22;68292;49.600;8.746;2024-01-15T12:33:44;10.30;48.00
28548;DHT22;68292;49.600;8.746;2024-01-15T12:36:13;10.30;48.10
28548;DHT22;68292;49.600;8.746;2024-01-15T12:38:44;10.40;48.00
28548;DHT22;68292;49.600;8.746;2024-01-15T12:41:13;10.30;48.10
28548;DHT22;68292;49.600;8.746;2024-01-15T12:43:43;10.40;48.10
28548;DHT22;68292;49.600;8.746;2024-01-15T12:46:12;10.30;48.00
28548;DHT22;68292;49.600;8.746;2024-01-15T12:48:44;10.30;47.90
28548;DHT22;68292;49.600;8.746;2024-01-15T12:51:13;10.30;48.10
28548;DHT22;68292;49.600;8.746;2024-01-15T12:53:43;10.40;48.20
28548;DHT22;68292;49.600;8.746;2024-01-15T12:56:12;10.40;48.10
28548;DHT22;68292;49.600;8.746;2024-01-15T12:58:41;10.40;48.10
28548;DHT22;68292;49.600;8.746;2024-01-15T13:01:09;10.40;48.10
28548;DHT22;68292;49.600;8.746;2024-01-15T13:03:38;10.40;48.80
28548;DHT22;68292;49.600;8.746;2024-01-15T13:06:09;10.40;48.10
28548;DHT22;68292;49.600;8.746;2024-01-15T13:08:37;10.50;48.10
28548;DHT22;68292;49.600;8.746;2024-01-15T13:11:06;10.50;48.10
28548;DHT22;68292;49.600;8.746;2024-01-15T13:13:35;10.50;48.00
28548;DHT22;68292;49.600;8.746;2024-01-15T13:16:05;10.50;48.00
28548;DHT22;68292;49.600;8.746;2024-01-15T13:18:35;10.50;48.00
28548;DHT22;68292;49.600;8.746;2024-01-15T13:21:04;10.50;47.90
28548;DHT22;68292;49.600;8.746;2024-01-15T13:23:34;10.60;47.90
28548;DHT22;68292;49.600;8.746;2024-01-15T13:26:04;10.50;48.10
28548;DHT22;68292;49.600;8.746;2024-01-15T13:28:34;10.50;47.90
28548;DHT22;68292;49.600;8.746;2024-01-15T13:31:03;10.50;48.00
28548;DHT22;68292;49.600;8.746;2024-01-15T13:33:32;10.60;48.00
28548;DHT22;68292;49.600;8.746;2024-01-15T13:36:00;10.60;48.00
28548;DHT22;68292;49.600;8.746;2024-01-15T13:38:30;10.60;47.90
28548;DHT22;68292;49.600;8.746;2024-01-15T13:41:05;10.60;47.90
28548;DHT22;68292;49.600;8.746;2024-01-15T13:43:33;10.60;47.90
28548;DHT22;68292;49.600;8.746;2024-01-15T13:46:02;10.60;47.80
28548;DHT22;68292;49.600;8.746;2024-01-15T13:48:32;10.60;47.80
28548;DHT22;68292;49.600;8.746;2024-01-15T13:51:01;10.60;47.70
28548;DHT22;68292;49.600;8.746;2024-01-15T13:53:29;10.60;47.70
28548;DHT22;68292;49.600;8.746;2024-01-15T13:55:58;10.60;47.70
28548;DHT22;68292;49.600;8.746;2024-01-15T13:58:28;10.50;47.70
28548;DHT22;68292;49.600;8.746;2024-01-15T14:00:57;10.50;47.80
28548;DHT22;68292;49.600;8.746;2024-01-15T14:03:26;10.60;47.80
28548;DHT22;68292;49.600;8.746;2024-01-15T14:05:55;10.60;47.80
28548;DHT22;68292;49.600;8.746;2024-01-15T14:08:24;10.60;47.80
28548;DHT22;68292;49.600;8.746;2024-01-15T14:10:53;10.50;47.80
28548;DHT22;68292;49.600;8.746;2024-01-15T14:13:24;10.60;47.80
28548;DHT22;68292;49.600;8.746;2024-01-15T14:15:54;10.60;47.80
28548;DHT22;68292;49.600;8.746;2024-01-15T14:18:23;10.60;47.80
28548;DHT22;68292;49.600;8.746;2024-01-15T14:20:52;10.60;47.90
28548;DHT22;68292;49.600;8.746;2024-01-15T14:23:21;10.60;47.90
28548;DHT22;68292;49.600;8.746;2024-01-15T14:25:50;10.60;47.90
28548;DHT22;68292;49.600;8.746;2024-01-15T14:28:19;10.60;48.00
28548;DHT22;68292;49.600;8.746;2024-01-15T14:30:47;10.60;48.00
28548;DHT22;68292;49.600;8.746;2024-01-15T14:33:18;10.50;47.90
28548;DHT22;68292;49.600;8.746;2024-01-15T14:35:47;10.60;48.00
28548;DHT22;68292;49.600;8.746;2024-01-15T14:38:16;10.60;48.00
28548;DHT22;68292;49.600;8.746;2024-01-15T14:40:45;10.50;47.80
28548;DHT22;68292;49.600;8.746;2024-01-15T14:43:14;10.60;47.90
28548;DHT22;68292;49.600;8.746;2024-01-15T14:45:43;10.50;47.80
28548;DHT22;68292;49.600;8.746;2024-01-15T14:48:13;10.60;47.80
28548;DHT22;68292;49.600;8.746;2024-01-15T14:50:43;10.50;48.50
28548;DHT22;68292;49.600;8.746;2024-01-15T14:53:12;10.50;47.90
28548;DHT22;68292;49.600;8.746;2024-01-15T14:55:41;10.60;47.90
28548;DHT22;68292;49.600;8.746;2024-01-15T14:58:09;10.60;47.90
28548;DHT22;68292;49.600;8.746;2024-01-15T15:00:38;10.50;47.80
28548;DHT22;68292;49.600;8.746;2024-01-15T15:03:07;10.50;47.90
28548;DHT22;68292;49.600;8.746;2024-01-15T15:05:37;10.60;47.90
28548;DHT22;68292;49.600;8.746;2024-01-15T15:08:07;10.60;47.80
28548;DHT22;68292;49.600;8.746;2024-01-15T15:10:36;10.60;47.90
28548;DHT22;68292;49.600;8.746;2024-01-15T15:13:05;10.60;47.80
28548;DHT22;68292;49.600;8.746;2024-01-15T15:15:34;10.60;47.70
28548;DHT22;68292;49.600;8.746;2024-01-15T15:18:03;10.60;47.80
28548;DHT22;68292;49.600;8.746;2024-01-15T15:20:32;10.60;47.70
28548;DHT22;68292;49.600;8.746;2024-01-15T15:23:01;10.60;47.70
28548;DHT22;68292;49.600;8.746;2024-01-15T15:25:33;10.60;47.70
28548;DHT22;68292;49.600;8.746;2024-01-15T15:28:03;10.60;47.70
28548;DHT22;68292;49.600;8.746;2024-01-15T15:30:32;10.60;47.70
28548;DHT22;68292;49.600;8.746;2024-01-15T15:33:01;10.60;47.60
28548;DHT22;68292;49.600;8.746;2024-01-15T15:35:30;10.60;47.60
28548;DHT22;68292;49.600;8.746;2024-01-15T15:37:58;10.60;47.60
28548;DHT22;68292;49.600;8.746;2024-01-15T15:40:27;10.60;47.60
28548;DHT22;68292;49.600;8.746;2024-01-15T15:42:57;10.60;47.60
28548;DHT22;68292;49.600;8.746;2024-01-15T15:45:26;10.60;47.60
28548;DHT22;68292;49.600;8.746;2024-01-15T15:47:55;10.60;47.70
28548;DHT22;68292;49.600;8.746;2024-01-15T15:50:24;10.60;47.70
28548;DHT22;68292;49.600;8.746;2024-01-15T15:52:53;10.60;47.70
28548;DHT22;68292;49.600;8.746;2024-01-15T15:55:23;10.60;47.70